createdAt,value
2023-02-06T00:01:46.792Z,75.79
2023-02-06T00:04:14.939Z,75.82
2023-02-06T00:06:43.360Z,75.85
2023-02-06T00:09:11.618Z,75.98
2023-02-06T00:25:25.522Z,74.91
2023-02-06T00:27:53.271Z,74.99
2023-02-06T00:30:21.353Z,75.09
2023-02-06T00:32:49.161Z,75.26
2023-02-06T00:35:16.965Z,75.39
2023-02-06T00:37:44.771Z,75.47
2023-02-06T00:40:12.564Z,75.58
2023-02-06T00:42:40.547Z,75.76
2023-02-06T00:45:09.128Z,75.89
2023-02-06T00:47:37.086Z,75.95
2023-02-06T00:50:05.944Z,76.13
2023-02-06T00:52:33.704Z,76.31
2023-02-06T00:55:01.484Z,76.45
2023-02-06T00:57:30.209Z,76.50
2023-02-06T00:59:58.117Z,76.54
2023-02-06T01:02:27.497Z,76.54
2023-02-06T01:04:55.260Z,76.47
2023-02-06T01:07:23.083Z,76.39
2023-02-06T01:09:50.936Z,76.42
2023-02-06T01:12:18.701Z,76.58
2023-02-06T01:14:47.618Z,76.63
2023-02-06T01:17:15.356Z,76.61
2023-02-06T01:19:43.296Z,76.61
2023-02-06T01:22:11.048Z,76.61
2023-02-06T01:24:38.871Z,76.61
2023-02-06T01:27:06.716Z,76.78
2023-02-06T01:29:34.477Z,76.78
2023-02-06T01:32:03.508Z,76.61
2023-02-06T01:34:31.272Z,76.52
2023-02-06T01:36:59.067Z,76.51
2023-02-06T01:39:26.892Z,76.70
2023-02-06T01:41:54.661Z,76.63
2023-02-06T01:44:26.251Z,76.48
2023-02-06T01:46:57.133Z,76.39
2023-02-06T01:49:28.769Z,76.30
2023-02-06T01:52:08.438Z,76.29
2023-02-06T01:54:36.300Z,76.33
2023-02-06T01:57:08.136Z,76.36
2023-02-06T01:59:36.863Z,76.42
2023-02-06T02:02:04.922Z,76.51
2023-02-06T02:04:33.783Z,76.58
2023-02-06T02:07:15.303Z,76.54
2023-02-06T02:09:43.693Z,76.42
2023-02-06T02:12:12.619Z,76.30
2023-02-06T02:14:42.802Z,76.37
2023-02-06T02:17:45.839Z,76.40
2023-02-06T02:20:43.805Z,76.42
2023-02-06T02:23:30.557Z,76.42
2023-02-06T02:26:03.100Z,76.41
2023-02-06T02:28:37.578Z,76.38
2023-02-06T02:32:02.430Z,76.41
2023-02-06T02:34:44.981Z,76.49
2023-02-06T02:37:19.592Z,76.59
2023-02-06T02:39:53.324Z,76.93
2023-02-06T02:42:32.375Z,77.10
2023-02-06T02:45:09.637Z,77.04
2023-02-06T02:48:11.201Z,76.98
2023-02-06T02:50:40.278Z,78.14
2023-02-06T02:53:08.481Z,77.86
2023-02-06T02:55:36.917Z,76.79
2023-02-06T02:58:12.188Z,76.09
2023-02-06T03:00:47.570Z,75.70
2023-02-06T03:03:22.049Z,75.67
2023-02-06T03:06:25.934Z,76.23
2023-02-06T03:08:59.708Z,76.63
2023-02-06T03:11:27.992Z,76.72
2023-02-06T03:14:02.720Z,76.92
2023-02-06T03:16:41.020Z,77.27
2023-02-06T03:19:14.692Z,77.60
2023-02-06T03:21:45.387Z,77.60
2023-02-06T03:24:24.560Z,77.66
2023-02-06T03:26:58.801Z,77.86
2023-02-06T03:29:29.216Z,78.09
2023-02-06T03:32:05.615Z,78.15
2023-02-06T03:34:57.691Z,78.37
2023-02-06T03:37:27.023Z,78.55
2023-02-06T03:39:57.883Z,78.67
2023-02-06T03:42:28.431Z,78.39
2023-02-06T03:45:15.623Z,78.12
2023-02-06T03:47:46.540Z,77.90
2023-02-06T03:50:15.996Z,78.04
2023-02-06T03:52:48.356Z,78.58
2023-02-06T03:55:22.907Z,77.98
2023-02-06T03:58:05.628Z,77.42
2023-02-06T04:00:34.358Z,77.27
2023-02-06T04:03:03.817Z,77.29
2023-02-06T04:05:31.561Z,77.40
2023-02-06T04:07:59.402Z,77.66
2023-02-06T04:10:27.313Z,78.11
2023-02-06T04:12:55.797Z,78.69
2023-02-06T04:15:23.921Z,79.35
2023-02-06T04:18:00.105Z,79.87
2023-02-06T04:20:29.834Z,80.27
2023-02-06T04:22:59.237Z,80.55
2023-02-06T04:25:27.079Z,80.79
2023-02-06T04:27:55.529Z,81.14
2023-02-06T04:30:23.475Z,81.32
2023-02-06T04:32:51.304Z,81.41
2023-02-06T04:35:19.201Z,81.62
2023-02-06T04:37:46.890Z,81.73
2023-02-06T04:40:14.552Z,81.59
2023-02-06T04:42:42.945Z,81.65
2023-02-06T04:45:10.750Z,81.62
2023-02-06T04:47:38.562Z,81.28
2023-02-06T04:50:07.737Z,81.46
2023-02-06T04:52:35.566Z,81.50
2023-02-06T04:55:03.628Z,81.59
2023-02-06T04:57:31.378Z,81.75
2023-02-06T04:59:59.157Z,81.81
2023-02-06T05:02:26.929Z,81.84
2023-02-06T05:04:54.722Z,81.88
2023-02-06T05:07:22.519Z,81.94
2023-02-06T05:09:50.400Z,81.95
2023-02-06T05:24:34.299Z,81.26
2023-02-06T05:27:02.152Z,81.19
2023-02-06T05:29:29.857Z,80.99
2023-02-06T05:31:57.601Z,80.63
2023-02-06T05:34:25.567Z,80.44
2023-02-06T05:36:53.329Z,80.85
2023-02-06T05:39:21.191Z,80.53
2023-02-06T05:41:48.951Z,78.73
2023-02-06T05:44:16.796Z,77.79
2023-02-06T05:46:44.614Z,78.40
2023-02-06T05:49:12.306Z,77.72
2023-02-06T05:51:40.232Z,75.97
2023-02-06T05:54:08.067Z,74.61
2023-02-06T05:56:35.830Z,74.47
2023-02-06T05:59:03.601Z,74.35
2023-02-06T06:01:31.404Z,74.37
2023-02-06T06:03:59.633Z,74.35
2023-02-06T06:06:27.421Z,74.72
2023-02-06T06:08:55.141Z,75.10
2023-02-06T06:11:22.907Z,76.18
2023-02-06T06:13:50.582Z,76.97
2023-02-06T06:16:18.436Z,77.08
2023-02-06T06:18:46.321Z,76.63
2023-02-06T06:21:14.342Z,76.74
2023-02-06T06:23:42.186Z,76.18
2023-02-06T06:26:10.358Z,76.15
2023-02-06T06:28:38.940Z,75.95
2023-02-06T06:31:11.711Z,75.90
2023-02-06T06:33:40.082Z,75.65
2023-02-06T06:36:10.056Z,76.23
2023-02-06T06:38:38.404Z,76.40
2023-02-06T06:41:06.629Z,76.92
2023-02-06T06:43:34.872Z,76.88
2023-02-06T06:46:02.751Z,76.79
2023-02-06T06:48:31.423Z,76.72
2023-02-06T06:50:59.230Z,76.97
2023-02-06T06:53:27.312Z,77.29
2023-02-06T06:55:55.057Z,77.40
2023-02-06T06:58:22.795Z,77.59
2023-02-06T07:00:53.281Z,78.10
2023-02-06T07:03:21.114Z,78.11
2023-02-06T07:05:48.919Z,78.35
2023-02-06T07:08:16.733Z,78.61
2023-02-06T07:10:44.679Z,79.05
2023-02-06T07:13:12.947Z,79.04
2023-02-06T07:15:41.012Z,78.75
2023-02-06T07:18:11.570Z,78.82
2023-02-06T07:20:39.471Z,78.88
2023-02-06T07:23:07.331Z,79.03
2023-02-06T07:25:35.588Z,79.03
2023-02-06T07:28:03.618Z,79.17
2023-02-06T07:30:31.461Z,79.16
2023-02-06T07:32:59.297Z,79.17
2023-02-06T07:35:27.122Z,79.37
2023-02-06T07:37:55.317Z,79.60
2023-02-06T07:40:25.111Z,79.60
2023-02-06T07:42:52.973Z,79.52
2023-02-06T07:45:26.057Z,79.53
2023-02-06T07:47:53.921Z,79.50
2023-02-06T07:50:21.654Z,79.53
2023-02-06T07:52:49.550Z,79.53
2023-02-06T07:55:17.528Z,79.61
2023-02-06T07:57:45.243Z,79.70
2023-02-06T08:00:13.508Z,79.64
2023-02-06T08:02:42.069Z,79.70
2023-02-06T08:05:10.148Z,79.72
2023-02-06T08:07:37.958Z,79.76
2023-02-06T08:10:05.992Z,79.82
2023-02-06T08:12:33.743Z,79.86
2023-02-06T08:15:01.586Z,79.86
2023-02-06T08:17:29.430Z,79.93
2023-02-06T08:19:57.345Z,79.95
2023-02-06T08:22:32.285Z,79.90
2023-02-06T08:25:06.965Z,79.85
2023-02-06T08:27:34.922Z,79.78
2023-02-06T08:30:02.807Z,79.71
2023-02-06T08:32:34.987Z,79.64
2023-02-06T08:35:02.901Z,79.61
2023-02-06T08:37:32.282Z,79.52
2023-02-06T08:40:00.085Z,79.39
2023-02-06T08:42:27.937Z,79.31
2023-02-06T08:44:55.766Z,79.17
2023-02-06T08:47:23.663Z,79.02
2023-02-06T08:49:51.660Z,78.98
2023-02-06T08:52:19.481Z,78.90
2023-02-06T08:54:47.200Z,79.00
2023-02-06T08:57:15.005Z,78.97
2023-02-06T08:59:43.009Z,78.98
2023-02-06T09:02:11.984Z,78.92
2023-02-06T09:04:39.879Z,78.91
2023-02-06T09:07:07.655Z,79.00
2023-02-06T09:09:35.700Z,79.15
2023-02-06T09:12:04.095Z,79.27
2023-02-06T09:14:32.342Z,79.30
2023-02-06T09:17:00.195Z,79.36
2023-02-06T09:19:28.258Z,79.50
2023-02-06T09:21:56.891Z,79.58
2023-02-06T09:24:25.398Z,79.70
2023-02-06T09:26:59.806Z,79.46
2023-02-06T09:29:31.900Z,79.21
2023-02-06T09:32:00.277Z,78.82
2023-02-06T09:34:28.476Z,78.82
2023-02-06T09:36:57.924Z,79.68
2023-02-06T09:39:26.266Z,79.59
2023-02-06T09:42:04.694Z,79.11
2023-02-06T09:44:36.929Z,77.71
2023-02-06T09:47:22.047Z,77.19
2023-02-06T09:50:07.723Z,76.44
2023-02-06T09:52:54.597Z,75.34
2023-02-06T09:55:31.219Z,74.07
2023-02-06T09:58:11.179Z,74.26
2023-02-06T10:01:02.191Z,73.99
2023-02-06T10:03:59.277Z,73.38
2023-02-06T10:06:47.270Z,72.61
2023-02-06T10:09:24.605Z,72.36
2023-02-06T10:12:00.798Z,72.44
2023-02-06T10:14:39.038Z,72.44
2023-02-06T10:17:16.419Z,72.76
2023-02-06T10:19:59.637Z,72.83
2023-02-06T10:22:44.544Z,71.72
2023-02-06T10:25:22.228Z,72.15
2023-02-06T10:27:56.734Z,70.52
2023-02-06T10:30:31.300Z,68.41
2023-02-06T10:33:25.973Z,68.01
2023-02-06T10:36:08.006Z,66.72
2023-02-06T10:38:44.858Z,66.51
2023-02-06T10:42:03.578Z,65.76
2023-02-06T10:44:50.817Z,69.13
2023-02-06T10:47:36.253Z,67.35
2023-02-06T10:50:45.429Z,65.09
2023-02-06T10:53:37.126Z,67.23
2023-02-06T10:56:18.440Z,65.01
2023-02-06T10:58:53.066Z,64.05
2023-02-06T11:01:26.321Z,63.86
2023-02-06T11:04:04.517Z,63.70
2023-02-06T11:06:32.779Z,65.54
2023-02-06T11:09:00.670Z,67.76
2023-02-06T11:11:31.568Z,57.34
2023-02-06T11:14:14.067Z,48.82
2023-02-06T11:16:44.142Z,48.09
2023-02-06T11:19:26.599Z,47.97
2023-02-06T11:22:28.257Z,48.39
2023-02-06T11:25:05.977Z,49.14
2023-02-06T11:27:35.819Z,49.80
2023-02-06T11:30:23.857Z,50.17
2023-02-06T11:33:04.466Z,50.23
2023-02-06T11:35:47.417Z,51.10
2023-02-06T11:38:21.158Z,51.50
2023-02-06T11:41:01.987Z,54.27
2023-02-06T11:43:44.709Z,54.49
2023-02-06T11:46:15.445Z,55.73
2023-02-06T11:48:48.371Z,57.78
2023-02-06T11:51:16.938Z,58.98
2023-02-06T11:54:03.226Z,58.89
2023-02-06T11:56:31.796Z,58.10
2023-02-06T11:59:23.221Z,59.02
2023-02-06T12:01:51.058Z,59.63
2023-02-06T12:04:29.086Z,59.97
2023-02-06T12:07:16.469Z,59.50
2023-02-06T12:09:44.283Z,60.79
2023-02-06T12:12:20.430Z,62.06
2023-02-06T12:14:55.179Z,63.66
2023-02-06T12:17:36.078Z,64.97
2023-02-06T12:20:26.470Z,64.50
2023-02-06T12:22:59.088Z,61.21
2023-02-06T12:25:30.769Z,58.65
2023-02-06T12:28:11.819Z,55.62
2023-02-06T12:30:47.955Z,55.18
2023-02-06T12:33:21.149Z,55.59
2023-02-06T12:35:55.642Z,56.20
2023-02-06T12:38:51.160Z,57.35
2023-02-06T12:41:50.211Z,57.91
2023-02-06T12:44:36.858Z,58.95
2023-02-06T12:47:20.090Z,59.34
2023-02-06T12:49:59.852Z,60.25
2023-02-06T12:52:39.492Z,61.14
2023-02-06T12:55:22.475Z,61.66
2023-02-06T12:57:50.975Z,61.92
2023-02-06T13:00:38.269Z,62.19
2023-02-06T13:03:28.629Z,65.65
2023-02-06T13:06:04.274Z,67.21
2023-02-06T13:08:43.321Z,64.73
2023-02-06T13:11:39.129Z,62.43
2023-02-06T13:14:17.881Z,60.32
2023-02-06T13:16:50.833Z,60.87
2023-02-06T13:19:31.854Z,59.06
2023-02-06T13:22:13.076Z,55.97
2023-02-06T13:24:42.488Z,56.08
2023-02-06T13:27:38.240Z,56.88
2023-02-06T13:30:29.471Z,57.40
2023-02-06T13:33:13.918Z,57.97
2023-02-06T13:36:09.991Z,58.59
2023-02-06T13:38:38.856Z,59.68
2023-02-06T13:41:12.728Z,60.01
2023-02-06T13:44:17.598Z,60.28
2023-02-06T13:47:08.582Z,60.70
2023-02-06T13:49:57.997Z,61.35
2023-02-06T13:52:34.760Z,61.51
2023-02-06T13:55:12.074Z,62.28
2023-02-06T13:58:17.487Z,64.07
2023-02-06T14:00:49.689Z,66.13
2023-02-06T14:03:31.598Z,64.72
2023-02-06T14:06:08.757Z,63.35
2023-02-06T14:08:45.389Z,62.75
2023-02-06T14:11:53.224Z,62.57
2023-02-06T14:14:32.990Z,61.48
2023-02-06T14:17:09.860Z,60.93
2023-02-06T14:19:53.184Z,60.43
2023-02-06T14:22:42.293Z,61.45
2023-02-06T14:25:42.182Z,61.40
2023-02-06T14:28:26.817Z,60.50
2023-02-06T14:31:06.702Z,57.27
2023-02-06T14:33:56.753Z,54.97
2023-02-06T14:36:30.305Z,54.83
2023-02-06T14:39:35.748Z,55.61
2023-02-06T14:42:13.377Z,56.15
2023-02-06T14:44:42.851Z,56.97
2023-02-06T14:47:20.595Z,57.78
2023-02-06T14:49:49.563Z,58.56
2023-02-06T14:52:24.376Z,59.32
2023-02-06T14:54:52.612Z,60.08
2023-02-06T14:57:26.406Z,60.85
2023-02-06T15:00:04.393Z,61.30
2023-02-06T15:02:35.094Z,61.80
2023-02-06T15:05:04.925Z,64.07
2023-02-06T15:07:35.885Z,65.89
2023-02-06T15:10:08.596Z,65.18
2023-02-06T15:12:38.276Z,64.33
2023-02-06T15:15:19.301Z,63.74
2023-02-06T15:18:07.542Z,64.37
2023-02-06T15:20:40.340Z,63.08
2023-02-06T15:23:17.973Z,62.21
2023-02-06T15:25:53.608Z,61.77
2023-02-06T15:28:25.372Z,61.28
2023-02-06T15:30:58.982Z,62.28
2023-02-06T15:33:36.030Z,62.58
2023-02-06T15:36:04.416Z,62.03
2023-02-06T15:38:33.641Z,61.39
2023-02-06T15:41:06.729Z,61.22
2023-02-06T15:43:35.888Z,61.16
2023-02-06T15:46:05.711Z,61.60
2023-02-06T15:48:54.512Z,61.78
2023-02-06T15:51:27.209Z,62.47
2023-02-06T15:54:18.101Z,61.58
2023-02-06T15:56:54.825Z,61.54
2023-02-06T15:59:25.410Z,61.27
2023-02-06T16:01:55.618Z,61.53
2023-02-06T16:04:37.297Z,61.63
2023-02-06T16:07:24.433Z,61.81
2023-02-06T16:10:04.332Z,62.68
2023-02-06T16:12:37.970Z,64.06
2023-02-06T16:15:32.833Z,66.62
2023-02-06T16:18:18.327Z,66.12
2023-02-06T16:20:46.764Z,64.06
2023-02-06T16:23:22.776Z,63.98
2023-02-06T16:26:30.559Z,63.74
2023-02-06T16:29:24.634Z,62.98
2023-02-06T16:32:12.663Z,61.86
2023-02-06T16:34:43.300Z,65.78
2023-02-06T16:37:17.185Z,61.76
2023-02-06T16:39:45.886Z,54.98
2023-02-06T16:42:25.788Z,52.58
2023-02-06T16:44:59.298Z,53.54
2023-02-06T16:47:27.983Z,55.03
2023-02-06T16:49:56.086Z,56.27
2023-02-06T16:52:30.503Z,57.40
2023-02-06T16:54:59.158Z,58.34
2023-02-06T16:57:26.834Z,59.03
2023-02-06T16:59:54.678Z,59.72
2023-02-06T17:02:23.772Z,60.54
2023-02-06T17:04:52.011Z,61.37
2023-02-06T17:07:24.383Z,62.21
2023-02-06T17:09:54.034Z,65.97
2023-02-06T17:12:22.826Z,72.36
2023-02-06T17:14:50.846Z,64.05
2023-02-06T17:17:21.802Z,56.91
2023-02-06T17:19:50.675Z,52.79
2023-02-06T17:22:18.885Z,53.49
2023-02-06T17:24:46.968Z,55.12
2023-02-06T17:27:22.797Z,56.47
2023-02-06T17:29:51.456Z,57.83
2023-02-06T17:32:23.016Z,59.08
2023-02-06T17:34:53.976Z,60.20
2023-02-06T17:37:22.170Z,61.09
2023-02-06T17:39:52.134Z,61.89
2023-02-06T17:42:21.927Z,63.87
2023-02-06T17:44:50.226Z,64.77
2023-02-06T17:47:18.195Z,64.85
2023-02-06T17:49:47.162Z,65.11
2023-02-06T17:52:15.347Z,65.60
2023-02-06T17:54:43.890Z,66.01
2023-02-06T17:57:13.568Z,66.50
2023-02-06T17:59:41.452Z,66.59
2023-02-06T18:02:12.815Z,66.75
2023-02-06T18:04:41.391Z,67.10
2023-02-06T18:07:09.272Z,67.43
2023-02-06T18:09:37.099Z,68.03
2023-02-06T18:12:04.969Z,68.13
2023-02-06T18:14:35.364Z,68.26
2023-02-06T18:17:03.710Z,68.68
2023-02-06T18:19:31.876Z,68.95
2023-02-06T18:22:00.193Z,69.11
2023-02-06T18:24:27.937Z,69.33
2023-02-06T18:26:55.716Z,69.46
2023-02-06T18:29:23.487Z,69.76
2023-02-06T18:31:51.361Z,69.97
2023-02-06T18:34:20.532Z,70.10
2023-02-06T18:36:48.717Z,70.32
2023-02-06T18:39:17.086Z,70.55
2023-02-06T18:42:03.748Z,70.79
2023-02-06T18:44:31.590Z,71.02
2023-02-06T18:46:59.505Z,71.25
2023-02-06T18:49:27.285Z,71.36
2023-02-06T18:51:55.106Z,71.44
2023-02-06T18:54:22.857Z,71.54
2023-02-06T18:56:50.607Z,71.82
2023-02-06T18:59:18.431Z,72.08
2023-02-06T19:01:48.226Z,72.34
2023-02-06T19:04:15.911Z,72.49
2023-02-06T19:06:44.869Z,72.52
2023-02-06T19:09:16.466Z,72.60
2023-02-06T19:11:44.189Z,72.61
2023-02-06T19:14:15.264Z,72.70
2023-02-06T19:16:47.491Z,72.86
2023-02-06T19:19:15.252Z,73.07
2023-02-06T19:21:43.433Z,73.14
2023-02-06T19:24:14.320Z,73.29
2023-02-06T19:26:42.099Z,73.48
2023-02-06T19:29:13.863Z,73.24
2023-02-06T19:31:42.729Z,73.70
2023-02-06T19:34:10.915Z,73.91
2023-02-06T19:36:38.954Z,74.06
2023-02-06T19:39:09.354Z,74.10
2023-02-06T19:41:37.280Z,74.23
2023-02-06T19:44:08.588Z,74.33
2023-02-06T19:46:37.193Z,74.47
2023-02-06T19:49:08.614Z,74.65
2023-02-06T19:51:40.021Z,74.98
2023-02-06T19:54:08.424Z,75.18
2023-02-06T19:56:43.356Z,75.23
2023-02-06T19:59:18.690Z,75.25
2023-02-06T20:01:49.448Z,75.19
2023-02-06T20:04:18.873Z,75.21
2023-02-06T20:06:47.511Z,75.23
2023-02-06T20:09:16.044Z,75.29
2023-02-06T20:11:44.500Z,75.30
2023-02-06T20:14:12.655Z,75.18
2023-02-06T20:16:41.938Z,75.07
2023-02-06T20:19:27.005Z,74.85
2023-02-06T20:21:59.085Z,74.83
2023-02-06T20:24:30.358Z,74.84
2023-02-06T20:27:01.238Z,75.00
2023-02-06T20:29:32.684Z,75.27
2023-02-06T20:32:01.241Z,74.96
2023-02-06T20:34:29.642Z,74.95
2023-02-06T20:36:57.941Z,75.00
2023-02-06T20:39:26.396Z,75.08
2023-02-06T20:41:54.508Z,75.15
2023-02-06T20:44:22.629Z,75.38
2023-02-06T20:46:50.409Z,75.19
2023-02-06T20:49:27.600Z,75.07
2023-02-06T20:51:56.337Z,75.09
2023-02-06T20:54:25.040Z,75.09
2023-02-06T20:56:53.542Z,74.96
2023-02-06T20:59:21.795Z,74.80
2023-02-06T21:01:49.589Z,74.77
2023-02-06T21:04:18.515Z,74.76
2023-02-06T21:06:50.386Z,74.70
2023-02-06T21:09:18.922Z,74.68
2023-02-06T21:11:49.283Z,74.72
2023-02-06T21:14:18.261Z,74.73
2023-02-06T21:16:46.653Z,74.69
2023-02-06T21:19:16.645Z,74.68
2023-02-06T21:21:46.327Z,74.89
2023-02-06T21:24:15.739Z,74.84
2023-02-06T21:26:43.935Z,74.64
2023-02-06T21:29:14.451Z,74.88
2023-02-06T21:31:43.494Z,75.21
2023-02-06T21:34:21.297Z,75.04
2023-02-06T21:36:49.856Z,75.13
2023-02-06T21:39:21.966Z,75.87
2023-02-06T21:41:51.985Z,80.96
2023-02-06T21:44:21.009Z,78.66
2023-02-06T21:46:48.730Z,68.23
2023-02-06T21:49:17.611Z,64.03
2023-02-06T21:51:45.420Z,61.21
2023-02-06T21:54:13.139Z,57.27
2023-02-06T21:56:41.171Z,53.08
2023-02-06T21:59:10.605Z,49.22
2023-02-06T22:01:40.974Z,45.44
2023-02-06T22:04:11.374Z,46.37
2023-02-06T22:06:39.268Z,48.53
2023-02-06T22:09:10.940Z,50.30
2023-02-06T22:11:39.805Z,51.99
2023-02-06T22:14:11.329Z,53.52
2023-02-06T22:16:39.207Z,54.96
2023-02-06T22:19:07.819Z,56.32
2023-02-06T22:21:35.747Z,57.49
2023-02-06T22:24:06.403Z,58.60
2023-02-06T22:26:38.751Z,59.57
2023-02-06T22:29:08.512Z,60.79
2023-02-06T22:31:37.416Z,61.60
2023-02-06T22:34:05.249Z,67.42
2023-02-06T22:36:33.570Z,72.10
2023-02-06T22:39:07.036Z,66.45
2023-02-06T22:41:38.382Z,59.64
2023-02-06T22:44:06.205Z,56.35
2023-02-06T22:46:36.585Z,54.46
2023-02-06T22:49:05.546Z,52.41
2023-02-06T22:51:34.376Z,51.24
2023-02-06T22:54:02.532Z,49.76
2023-02-06T22:56:37.329Z,48.74
2023-02-06T22:59:12.272Z,48.83
2023-02-06T23:01:45.497Z,47.96
2023-02-06T23:04:15.774Z,47.04
2023-02-06T23:06:44.727Z,46.40
2023-02-06T23:09:16.842Z,46.30
2023-02-06T23:11:45.656Z,46.35
2023-02-06T23:14:15.340Z,46.00
2023-02-06T23:16:43.549Z,46.00
2023-02-06T23:19:13.352Z,45.83
2023-02-06T23:21:42.886Z,46.74
2023-02-06T23:24:11.677Z,49.24
2023-02-06T23:26:42.232Z,49.58
2023-02-06T23:29:15.824Z,48.08
2023-02-06T23:31:45.550Z,47.57
2023-02-06T23:34:14.291Z,47.69
2023-02-06T23:36:42.798Z,48.90
2023-02-06T23:39:11.994Z,49.28
2023-02-06T23:41:40.331Z,49.44
2023-02-06T23:44:10.169Z,50.07
2023-02-06T23:46:39.460Z,50.91
2023-02-06T23:49:08.142Z,51.33
2023-02-06T23:51:37.838Z,51.45
2023-02-06T23:54:07.736Z,52.73
2023-02-06T23:56:35.936Z,52.53
2023-02-06T23:59:05.560Z,53.30
